Continental Highway — H9LY — position and weather

sailwx.info

Track history (hours):
 
Tides and Currents Weather Stations Pressure Air Temp Water Temp Dewpoint Dewpoint Depression Visibility Wind Speed Wind Dir Waves Ship Positions

Continental Highway

Last reported at 2014-Dec-20 09:33 UTC. Time now 2014-Dec-20 09:45 UTC.
Position N 38°03' W 122°18'.

Length 199.9 m; beam 32.2 m.

Type: Cargo ship. MMSI: 351223000.

Date/timePositionNaut miles runAvg speedWind from/ knotsBaromVisibWave heightAir tempDewpointWater temp
2014-Dec-20 09:33N 38°03' W 122°18'8 6.8
2014-Dec-20 08:22N 38°02' W 122°08'0 0.0
2014-Dec-20 06:28N 38°02' W 122°08'0 0.0
2014-Dec-19 23:28N 38°02' W 122°08'0 0.0
2014-Dec-19 22:28N 38°02' W 122°08'0 0.0
2014-Dec-19 20:22N 38°02' W 122°08'0 0.0
2014-Dec-19 18:28N 38°02' W 122°08'0 0.0
2014-Dec-19 16:28N 38°02' W 122°08'0 0.0
2014-Dec-19 14:28N 38°02' W 122°08'0 0.0
2014-Dec-19 13:22N 38°02' W 122°08'0 0.0
2014-Dec-19 12:10N 38°02' W 122°08'0 0.0
2014-Dec-19 11:22N 38°02' W 122°08'0 0.0
2014-Dec-19 10:10N 38°02' W 122°08'0 0.0
2014-Dec-19 09:28N 38°02' W 122°08'0 0.0
2014-Dec-19 08:29N 38°02' W 122°08'3 3.0
2014-Dec-19 07:33N 38°03' W 122°12'1212.4
2014-Dec-19 06:33N 37°59' W 122°26'1211.9
2014-Dec-19 05:34N 37°48' W 122°32'1111.1
2014-Dec-19 04:34N 37°42' W 122°44'9 9.0
2014-Dec-19 03:34N 37°37' W 122°54'1414.4
2014-Dec-19 02:34N 37°25' W 123°03'1816.2
2014-Dec-19 01:26N 37°06' W 123°01'4615.1
2014-Dec-18 22:21N 36°24' W 122°37'11915.3
2014-Dec-18 14:33N 34°47' W 121°12'1716.2
2014-Dec-18 13:31N 34°34' W 120°60'14712.3
2014-Dec-18 01:33N 33°44' W 118°13'2 2.1
2014-Dec-18 00:34N 33°46' W 118°13'0 0.0
2014-Dec-17 23:33N 33°46' W 118°13'0 0.0
2014-Dec-17 22:33N 33°46' W 118°13'0 0.0
2014-Dec-17 21:33N 33°46' W 118°13'0 0.0
2014-Dec-17 20:33N 33°46' W 118°13'0 0.0
2014-Dec-17 19:33N 33°46' W 118°13'0 0.0
2014-Dec-17 18:33N 33°46' W 118°13'0 0.0
2014-Dec-17 17:33N 33°46' W 118°13'0 0.0
2014-Dec-17 16:33N 33°46' W 118°13'0 0.0
2014-Dec-17 15:33N 33°46' W 118°13'0 0.0
2014-Dec-17 14:33N 33°46' W 118°13'1 0.7
2014-Dec-17 13:33N 33°46' W 118°13'5 4.9
2014-Dec-17 12:33N 33°42' W 118°09'1 0.5
2014-Dec-17 11:31N 33°42' W 118°09'0 0.1
2014-Dec-17 10:28N 33°42' W 118°09'0 0.0
2014-Dec-17 09:25N 33°42' W 118°09'0 0.0
2014-Dec-17 08:31N 33°42' W 118°09'0 0.0
2014-Dec-17 07:31N 33°42' W 118°09'0 0.0
2014-Dec-17 05:13N 33°42' W 118°09'0 0.0
2014-Dec-17 04:28N 33°42' W 118°09'0 0.0
2014-Dec-17 02:13N 33°42' W 118°09'0 0.0
2014-Dec-17 00:19N 33°42' W 118°09'0 0.0
2014-Dec-16 17:07N 33°42' W 118°09'0 0.1
2014-Dec-16 15:31N 33°42' W 118°09'0 0.1
2014-Dec-16 14:28N 33°42' W 118°09'0 0.1
2014-Dec-16 13:31N 33°42' W 118°09'0 0.3
2014-Dec-16 12:33N 33°42' W 118°09'9 7.0
2014-Dec-16 11:19N 33°36' W 118°16'  
Track history (hours):
 
Tides and Currents Weather Stations Pressure Air Temp Water Temp Dewpoint Dewpoint Depression Visibility Wind Speed Wind Dir Waves Ship Positions

Continental Highway

Last reported at 2014-Dec-20 09:33 UTC. Time now 2014-Dec-20 09:45 UTC.
Position N 38°03' W 122°18'.

Length 199.9 m; beam 32.2 m.

Type: Cargo ship. MMSI: 351223000.

Date/timePositionNaut miles runAvg speedWind from/ knotsBaromVisibWave heightAir tempDewpointWater temp
2014-Dec-20 09:33N 38°03' W 122°18'8 6.8
2014-Dec-20 08:22N 38°02' W 122°08'0 0.0
2014-Dec-20 06:28N 38°02' W 122°08'0 0.0
2014-Dec-19 23:28N 38°02' W 122°08'0 0.0
2014-Dec-19 22:28N 38°02' W 122°08'0 0.0
2014-Dec-19 20:22N 38°02' W 122°08'0 0.0
2014-Dec-19 18:28N 38°02' W 122°08'0 0.0
2014-Dec-19 16:28N 38°02' W 122°08'0 0.0
2014-Dec-19 14:28N 38°02' W 122°08'0 0.0
2014-Dec-19 13:22N 38°02' W 122°08'0 0.0
2014-Dec-19 12:10N 38°02' W 122°08'0 0.0
2014-Dec-19 11:22N 38°02' W 122°08'0 0.0
2014-Dec-19 10:10N 38°02' W 122°08'0 0.0
2014-Dec-19 09:28N 38°02' W 122°08'0 0.0
2014-Dec-19 08:29N 38°02' W 122°08'3 3.0
2014-Dec-19 07:33N 38°03' W 122°12'1212.4
2014-Dec-19 06:33N 37°59' W 122°26'1211.9
2014-Dec-19 05:34N 37°48' W 122°32'1111.1
2014-Dec-19 04:34N 37°42' W 122°44'9 9.0
2014-Dec-19 03:34N 37°37' W 122°54'1414.4
2014-Dec-19 02:34N 37°25' W 123°03'1816.2
2014-Dec-19 01:26N 37°06' W 123°01'4615.1
2014-Dec-18 22:21N 36°24' W 122°37'11915.3
2014-Dec-18 14:33N 34°47' W 121°12'1716.2
2014-Dec-18 13:31N 34°34' W 120°60'14712.3
2014-Dec-18 01:33N 33°44' W 118°13'2 2.1
2014-Dec-18 00:34N 33°46' W 118°13'0 0.0
2014-Dec-17 23:33N 33°46' W 118°13'0 0.0
2014-Dec-17 22:33N 33°46' W 118°13'0 0.0
2014-Dec-17 21:33N 33°46' W 118°13'0 0.0
2014-Dec-17 20:33N 33°46' W 118°13'0 0.0
2014-Dec-17 19:33N 33°46' W 118°13'0 0.0
2014-Dec-17 18:33N 33°46' W 118°13'0 0.0
2014-Dec-17 17:33N 33°46' W 118°13'0 0.0
2014-Dec-17 16:33N 33°46' W 118°13'0 0.0
2014-Dec-17 15:33N 33°46' W 118°13'0 0.0
2014-Dec-17 14:33N 33°46' W 118°13'1 0.7
2014-Dec-17 13:33N 33°46' W 118°13'5 4.9
2014-Dec-17 12:33N 33°42' W 118°09'1 0.5
2014-Dec-17 11:31N 33°42' W 118°09'0 0.1
2014-Dec-17 10:28N 33°42' W 118°09'0 0.0
2014-Dec-17 09:25N 33°42' W 118°09'0 0.0
2014-Dec-17 08:31N 33°42' W 118°09'0 0.0
2014-Dec-17 07:31N 33°42' W 118°09'0 0.0
2014-Dec-17 05:13N 33°42' W 118°09'0 0.0
2014-Dec-17 04:28N 33°42' W 118°09'0 0.0
2014-Dec-17 02:13N 33°42' W 118°09'0 0.0
2014-Dec-17 00:19N 33°42' W 118°09'0 0.0
2014-Dec-16 17:07N 33°42' W 118°09'0 0.1
2014-Dec-16 15:31N 33°42' W 118°09'0 0.1
2014-Dec-16 14:28N 33°42' W 118°09'0 0.1
2014-Dec-16 13:31N 33°42' W 118°09'0 0.3
2014-Dec-16 12:33N 33°42' W 118°09'9 7.0
2014-Dec-16 11:19N 33°36' W 118°16'  

Dump ship's entire track history